Hamersville, Ohio
Current Conditions -  °F | °C
As of 12:53 AM on Thursday 27 Nov 2014 (Local Time) from KLUK Reporting Station
Overcast Overcast  
Wind Chill: -2°   Ceiling: 9000
Heat Index: -2°   Visibility: 9mi
Dew Point: -4°   Wind: 3mph
Humidity: 82%   Direction: 360°N
Pressure: 30.09"   Gusts: NA
Location:  38.92°N, 83.98°W
Report Text: KLUK 270553Z AUTO 36003KT 9SM BKN090 OVC120 M02/M04 A3009 RMK AO2 SLP192 T10171044 10011 21017 50000
Loading
Personal Weather Stations






























Interactive Weather Map New forecast layout! Learn more

10-Day Weather Forecast

Advertisements
Track Severe Weather on mobile